sensor_id;sensor_type;location;lat;lon;timestamp;pressure;altitude;pressure_sealevel;temperature;humidity
47761;BME280;33524;55.434;38.520;2023-08-21T00:01:58;100282.19;;;15.08;100.00
47761;BME280;33524;55.434;38.520;2023-08-21T00:04:27;100291.25;;;15.06;100.00
47761;BME280;33524;55.434;38.520;2023-08-21T00:06:55;100287.59;;;15.17;100.00
47761;BME280;33524;55.434;38.520;2023-08-21T00:09:23;100284.16;;;15.44;100.00
47761;BME280;33524;55.434;38.520;2023-08-21T00:11:51;100298.28;;;15.44;100.00
47761;BME280;33524;55.434;38.520;2023-08-21T00:14:20;100283.91;;;15.37;99.21
47761;BME280;33524;55.434;38.520;2023-08-21T00:16:48;100294.37;;;15.39;100.00
47761;BME280;33524;55.434;38.520;2023-08-21T00:19:16;100299.91;;;15.55;100.00
47761;BME280;33524;55.434;38.520;2023-08-21T00:21:44;100293.66;;;15.84;98.39
47761;BME280;33524;55.434;38.520;2023-08-21T00:24:12;100294.16;;;15.12;100.00
47761;BME280;33524;55.434;38.520;2023-08-21T00:26:40;100300.59;;;15.00;100.00
47761;BME280;33524;55.434;38.520;2023-08-21T00:29:08;100300.06;;;14.87;100.00
47761;BME280;33524;55.434;38.520;2023-08-21T00:31:36;100309.97;;;14.65;100.00
47761;BME280;33524;55.434;38.520;2023-08-21T00:34:05;100304.53;;;14.57;100.00
47761;BME280;33524;55.434;38.520;2023-08-21T00:36:32;100301.59;;;14.41;100.00
47761;BME280;33524;55.434;38.520;2023-08-21T00:39:00;100308.69;;;14.30;100.00
47761;BME280;33524;55.434;38.520;2023-08-21T00:41:29;100310.00;;;14.56;100.00
47761;BME280;33524;55.434;38.520;2023-08-21T00:43:57;100303.66;;;14.47;100.00
47761;BME280;33524;55.434;38.520;2023-08-21T00:46:25;100306.97;;;14.20;100.00
47761;BME280;33524;55.434;38.520;2023-08-21T00:48:53;100307.56;;;14.23;100.00
47761;BME280;33524;55.434;38.520;2023-08-21T00:51:21;100305.59;;;14.06;100.00
47761;BME280;33524;55.434;38.520;2023-08-21T00:53:49;100311.72;;;14.16;100.00
47761;BME280;33524;55.434;38.520;2023-08-21T00:56:19;100314.47;;;14.05;100.00
47761;BME280;33524;55.434;38.520;2023-08-21T00:58:47;100304.78;;;14.25;100.00
47761;BME280;33524;55.434;38.520;2023-08-21T01:01:15;100305.75;;;14.33;100.00
47761;BME280;33524;55.434;38.520;2023-08-21T01:03:46;100304.87;;;14.13;100.00
47761;BME280;33524;55.434;38.520;2023-08-21T01:06:14;100297.09;;;14.12;100.00
47761;BME280;33524;55.434;38.520;2023-08-21T01:08:53;100302.56;;;14.20;100.00
47761;BME280;33524;55.434;38.520;2023-08-21T01:14:28;100291.94;;;14.10;100.00
47761;BME280;33524;55.434;38.520;2023-08-21T01:17:00;100307.25;;;14.07;100.00
47761;BME280;33524;55.434;38.520;2023-08-21T01:22:09;100304.19;;;14.11;100.00
47761;BME280;33524;55.434;38.520;2023-08-21T01:24:37;100302.53;;;13.70;100.00
47761;BME280;33524;55.434;38.520;2023-08-21T01:27:06;100298.19;;;13.59;100.00
47761;BME280;33524;55.434;38.520;2023-08-21T01:29:35;100297.78;;;13.64;100.00
47761;BME280;33524;55.434;38.520;2023-08-21T01:32:09;100303.69;;;13.77;100.00
47761;BME280;33524;55.434;38.520;2023-08-21T01:34:46;100307.03;;;13.79;100.00
47761;BME280;33524;55.434;38.520;2023-08-21T01:37:17;100311.28;;;13.61;100.00
47761;BME280;33524;55.434;38.520;2023-08-21T01:39:49;100310.00;;;13.55;100.00
47761;BME280;33524;55.434;38.520;2023-08-21T01:42:17;100305.47;;;13.67;100.00
47761;BME280;33524;55.434;38.520;2023-08-21T01:44:45;100310.44;;;13.60;100.00
47761;BME280;33524;55.434;38.520;2023-08-21T01:47:13;100317.34;;;14.32;100.00
47761;BME280;33524;55.434;38.520;2023-08-21T01:49:41;100308.50;;;14.12;100.00
47761;BME280;33524;55.434;38.520;2023-08-21T01:52:10;100309.03;;;13.56;100.00
47761;BME280;33524;55.434;38.520;2023-08-21T01:54:38;100320.56;;;13.86;100.00
47761;BME280;33524;55.434;38.520;2023-08-21T01:57:05;100308.53;;;13.72;100.00
47761;BME280;33524;55.434;38.520;2023-08-21T01:59:34;100313.81;;;13.62;100.00
47761;BME280;33524;55.434;38.520;2023-08-21T02:02:02;100319.09;;;13.72;100.00
47761;BME280;33524;55.434;38.520;2023-08-21T02:04:33;100320.06;;;14.11;99.17
47761;BME280;33524;55.434;38.520;2023-08-21T02:07:01;100318.47;;;14.59;96.40
47761;BME280;33524;55.434;38.520;2023-08-21T02:09:29;100331.41;;;13.92;99.21
47761;BME280;33524;55.434;38.520;2023-08-21T02:11:57;100322.84;;;14.20;98.20
47761;BME280;33524;55.434;38.520;2023-08-21T02:14:25;100327.91;;;14.32;95.53
47761;BME280;33524;55.434;38.520;2023-08-21T02:16:53;100330.06;;;13.98;97.79
47761;BME280;33524;55.434;38.520;2023-08-21T02:19:22;100339.78;;;13.98;99.14
47761;BME280;33524;55.434;38.520;2023-08-21T02:21:50;100340.00;;;13.85;99.25
47761;BME280;33524;55.434;38.520;2023-08-21T02:24:18;100336.06;;;13.69;98.68
47761;BME280;33524;55.434;38.520;2023-08-21T02:26:46;100341.19;;;14.02;100.00
47761;BME280;33524;55.434;38.520;2023-08-21T02:29:14;100339.25;;;13.63;98.03
47761;BME280;33524;55.434;38.520;2023-08-21T02:31:42;100337.25;;;13.86;99.36
47761;BME280;33524;55.434;38.520;2023-08-21T02:34:10;100348.56;;;13.98;99.61
47761;BME280;33524;55.434;38.520;2023-08-21T02:36:38;100343.34;;;13.87;99.78
47761;BME280;33524;55.434;38.520;2023-08-21T02:39:06;100347.47;;;13.70;99.03
47761;BME280;33524;55.434;38.520;2023-08-21T02:41:37;100352.50;;;13.42;99.86
47761;BME280;33524;55.434;38.520;2023-08-21T02:44:05;100356.03;;;13.52;100.00
47761;BME280;33524;55.434;38.520;2023-08-21T02:46:33;100354.16;;;13.43;99.39
47761;BME280;33524;55.434;38.520;2023-08-21T02:49:03;100352.87;;;13.38;100.00
47761;BME280;33524;55.434;38.520;2023-08-21T02:51:31;100359.59;;;13.42;99.67
47761;BME280;33524;55.434;38.520;2023-08-21T02:53:59;100353.53;;;13.30;99.34
47761;BME280;33524;55.434;38.520;2023-08-21T02:56:28;100357.88;;;13.20;100.00
47761;BME280;33524;55.434;38.520;2023-08-21T02:58:56;100350.22;;;13.59;100.00
47761;BME280;33524;55.434;38.520;2023-08-21T03:01:24;100350.38;;;13.36;100.00
47761;BME280;33524;55.434;38.520;2023-08-21T03:03:53;100346.06;;;13.66;100.00
47761;BME280;33524;55.434;38.520;2023-08-21T03:06:20;100354.88;;;14.17;98.62
47761;BME280;33524;55.434;38.520;2023-08-21T03:08:49;100349.97;;;14.02;98.73
47761;BME280;33524;55.434;38.520;2023-08-21T03:11:17;100351.25;;;14.08;99.70
47761;BME280;33524;55.434;38.520;2023-08-21T03:13:45;100346.16;;;13.85;100.00
47761;BME280;33524;55.434;38.520;2023-08-21T03:16:13;100354.00;;;13.66;98.61
47761;BME280;33524;55.434;38.520;2023-08-21T03:19:02;100354.44;;;14.02;96.99
47761;BME280;33524;55.434;38.520;2023-08-21T03:21:30;100348.75;;;13.76;97.88
47761;BME280;33524;55.434;38.520;2023-08-21T03:23:59;100356.75;;;13.95;97.24
47761;BME280;33524;55.434;38.520;2023-08-21T03:26:34;100350.47;;;13.86;96.50
47761;BME280;33524;55.434;38.520;2023-08-21T03:29:02;100344.28;;;13.76;97.58
47761;BME280;33524;55.434;38.520;2023-08-21T03:31:31;100346.16;;;13.85;97.16
47761;BME280;33524;55.434;38.520;2023-08-21T03:34:02;100341.28;;;14.50;95.89
47761;BME280;33524;55.434;38.520;2023-08-21T03:36:33;100347.19;;;14.04;94.34
47761;BME280;33524;55.434;38.520;2023-08-21T03:39:03;100345.34;;;13.95;96.21
47761;BME280;33524;55.434;38.520;2023-08-21T03:41:33;100339.66;;;13.59;96.61
47761;BME280;33524;55.434;38.520;2023-08-21T03:44:01;100331.53;;;13.50;96.45
47761;BME280;33524;55.434;38.520;2023-08-21T03:46:29;100343.22;;;13.88;96.20
47761;BME280;33524;55.434;38.520;2023-08-21T03:48:59;100328.84;;;13.20;96.11
47761;BME280;33524;55.434;38.520;2023-08-21T03:51:27;100330.09;;;14.08;97.42
47761;BME280;33524;55.434;38.520;2023-08-21T03:53:55;100333.44;;;13.69;95.50
47761;BME280;33524;55.434;38.520;2023-08-21T03:56:24;100340.16;;;13.52;95.05
47761;BME280;33524;55.434;38.520;2023-08-21T03:58:54;100336.78;;;13.71;94.63
47761;BME280;33524;55.434;38.520;2023-08-21T04:01:21;100341.63;;;13.66;95.24
47761;BME280;33524;55.434;38.520;2023-08-21T04:03:51;100348.84;;;14.05;94.32
47761;BME280;33524;55.434;38.520;2023-08-21T04:06:22;100346.06;;;14.86;92.92
47761;BME280;33524;55.434;38.520;2023-08-21T04:08:50;100347.12;;;13.84;93.72
47761;BME280;33524;55.434;38.520;2023-08-21T04:11:21;100351.50;;;14.05;93.40
47761;BME280;33524;55.434;38.520;2023-08-21T04:13:49;100341.63;;;14.77;92.59
47761;BME280;33524;55.434;38.520;2023-08-21T04:16:17;100351.44;;;14.55;91.03
47761;BME280;33524;55.434;38.520;2023-08-21T04:18:46;100349.34;;;15.17;91.78
47761;BME280;33524;55.434;38.520;2023-08-21T04:21:14;100357.78;;;14.93;88.94
47761;BME280;33524;55.434;38.520;2023-08-21T04:23:43;100360.62;;;14.51;90.17
47761;BME280;33524;55.434;38.520;2023-08-21T04:26:11;100359.56;;;14.63;90.64
47761;BME280;33524;55.434;38.520;2023-08-21T04:28:39;100344.03;;;14.29;90.68
47761;BME280;33524;55.434;38.520;2023-08-21T04:31:08;100356.44;;;14.29;90.91
47761;BME280;33524;55.434;38.520;2023-08-21T04:33:36;100348.78;;;14.55;91.32
47761;BME280;33524;55.434;38.520;2023-08-21T04:36:04;100355.37;;;14.61;89.26
47761;BME280;33524;55.434;38.520;2023-08-21T04:38:33;100354.97;;;14.56;90.30
47761;BME280;33524;55.434;38.520;2023-08-21T04:41:08;100348.75;;;15.52;86.59
47761;BME280;33524;55.434;38.520;2023-08-21T04:43:37;100348.75;;;15.52;86.10
47761;BME280;33524;55.434;38.520;2023-08-21T04:46:06;100349.78;;;15.32;85.78
47761;BME280;33524;55.434;38.520;2023-08-21T04:48:35;100357.34;;;14.88;87.82
47761;BME280;33524;55.434;38.520;2023-08-21T04:51:03;100348.13;;;15.02;86.30
47761;BME280;33524;55.434;38.520;2023-08-21T04:53:32;100341.44;;;15.74;86.11
47761;BME280;33524;55.434;38.520;2023-08-21T04:56:00;100344.59;;;15.40;85.48
47761;BME280;33524;55.434;38.520;2023-08-21T04:58:29;100345.06;;;15.06;85.89
47761;BME280;33524;55.434;38.520;2023-08-21T05:00:57;100344.47;;;16.52;84.75
47761;BME280;33524;55.434;38.520;2023-08-21T05:03:26;100346.13;;;16.36;80.92
47761;BME280;33524;55.434;38.520;2023-08-21T05:05:58;100349.09;;;17.04;79.28
47761;BME280;33524;55.434;38.520;2023-08-21T05:08:26;100343.72;;;16.96;81.11
47761;BME280;33524;55.434;38.520;2023-08-21T05:10:58;100347.53;;;17.20;82.92
47761;BME280;33524;55.434;38.520;2023-08-21T05:13:27;100342.37;;;17.97;76.86
47761;BME280;33524;55.434;38.520;2023-08-21T05:15:57;100341.66;;;17.86;73.63
47761;BME280;33524;55.434;38.520;2023-08-21T05:18:27;100342.81;;;17.58;76.00
47761;BME280;33524;55.434;38.520;2023-08-21T05:20:57;100344.94;;;17.80;74.68
47761;BME280;33524;55.434;38.520;2023-08-21T05:23:25;100345.22;;;17.77;76.24
47761;BME280;33524;55.434;38.520;2023-08-21T05:25:53;100351.50;;;17.68;77.74
47761;BME280;33524;55.434;38.520;2023-08-21T05:28:22;100347.44;;;16.67;77.84
47761;BME280;33524;55.434;38.520;2023-08-21T05:30:50;100345.84;;;17.10;78.92
47761;BME280;33524;55.434;38.520;2023-08-21T05:33:18;100350.41;;;17.00;79.23
47761;BME280;33524;55.434;38.520;2023-08-21T05:35:48;100349.09;;;18.17;78.44
47761;BME280;33524;55.434;38.520;2023-08-21T05:38:16;100344.56;;;18.85;76.84
47761;BME280;33524;55.434;38.520;2023-08-21T05:40:44;100337.41;;;19.82;70.41
47761;BME280;33524;55.434;38.520;2023-08-21T05:43:16;100338.78;;;20.41;69.30
47761;BME280;33524;55.434;38.520;2023-08-21T05:45:47;100342.63;;;21.45;66.21
47761;BME280;33524;55.434;38.520;2023-08-21T05:48:16;100347.44;;;21.12;63.06
47761;BME280;33524;55.434;38.520;2023-08-21T05:50:53;100338.66;;;20.03;65.18
47761;BME280;33524;55.434;38.520;2023-08-21T05:53:22;100346.88;;;19.93;72.48
47761;BME280;33524;55.434;38.520;2023-08-21T05:55:54;100347.28;;;20.75;70.53
47761;BME280;33524;55.434;38.520;2023-08-21T05:58:24;100353.03;;;21.25;66.35
47761;BME280;33524;55.434;38.520;2023-08-21T06:00:58;100346.44;;;19.73;64.63
47761;BME280;33524;55.434;38.520;2023-08-21T06:03:28;100345.06;;;19.85;72.58
47761;BME280;33524;55.434;38.520;2023-08-21T06:05:58;100341.34;;;19.30;73.74
47761;BME280;33524;55.434;38.520;2023-08-21T06:08:26;100346.25;;;20.22;70.06
47761;BME280;33524;55.434;38.520;2023-08-21T06:10:57;100333.94;;;20.90;68.40
47761;BME280;33524;55.434;38.520;2023-08-21T06:13:25;100329.41;;;22.03;67.53
47761;BME280;33524;55.434;38.520;2023-08-21T06:15:54;100337.34;;;22.26;65.43
47761;BME280;33524;55.434;38.520;2023-08-21T06:18:23;100325.41;;;22.93;64.80
47761;BME280;33524;55.434;38.520;2023-08-21T06:20:51;100326.88;;;21.65;57.91
47761;BME280;33524;55.434;38.520;2023-08-21T06:23:22;100335.78;;;21.28;65.32
47761;BME280;33524;55.434;38.520;2023-08-21T06:25:50;100338.81;;;20.87;64.40
47761;BME280;33524;55.434;38.520;2023-08-21T06:28:19;100340.34;;;21.57;70.51
47761;BME280;33524;55.434;38.520;2023-08-21T06:30:47;100334.03;;;22.24;59.88
47761;BME280;33524;55.434;38.520;2023-08-21T06:33:18;100325.25;;;23.58;62.36
47761;BME280;33524;55.434;38.520;2023-08-21T06:35:46;100334.09;;;22.16;65.79
47761;BME280;33524;55.434;38.520;2023-08-21T06:38:16;100324.22;;;24.75;58.34
47761;BME280;33524;55.434;38.520;2023-08-21T06:40:47;100312.66;;;24.00;59.02
47761;BME280;33524;55.434;38.520;2023-08-21T06:43:15;100320.50;;;24.76;60.72
47761;BME280;33524;55.434;38.520;2023-08-21T06:45:45;100322.56;;;26.00;56.75
47761;BME280;33524;55.434;38.520;2023-08-21T06:48:16;100333.59;;;21.76;53.63
47761;BME280;33524;55.434;38.520;2023-08-21T06:50:46;100327.03;;;23.16;66.55
47761;BME280;33524;55.434;38.520;2023-08-21T06:53:14;100328.97;;;21.70;59.27
47761;BME280;33524;55.434;38.520;2023-08-21T06:55:44;100328.41;;;20.69;71.89
47761;BME280;33524;55.434;38.520;2023-08-21T06:58:13;100326.31;;;21.70;71.23
47761;BME280;33524;55.434;38.520;2023-08-21T07:00:44;100324.78;;;22.70;57.38
47761;BME280;33524;55.434;38.520;2023-08-21T07:03:13;100320.75;;;22.37;68.68
47761;BME280;33524;55.434;38.520;2023-08-21T07:05:45;100319.50;;;23.68;59.64
47761;BME280;33524;55.434;38.520;2023-08-21T07:08:14;100314.09;;;21.82;63.07
47761;BME280;33524;55.434;38.520;2023-08-21T07:10:42;100325.84;;;23.53;63.61
47761;BME280;33524;55.434;38.520;2023-08-21T07:13:09;100319.38;;;21.75;54.71
47761;BME280;33524;55.434;38.520;2023-08-21T07:15:46;100323.62;;;21.70;67.42
47761;BME280;33524;55.434;38.520;2023-08-21T07:18:14;100328.91;;;20.18;61.01
47761;BME280;33524;55.434;38.520;2023-08-21T07:20:43;100320.47;;;25.16;59.87
47761;BME280;33524;55.434;38.520;2023-08-21T07:23:11;100322.56;;;25.34;58.65
47761;BME280;33524;55.434;38.520;2023-08-21T07:25:39;100320.91;;;25.20;50.08
47761;BME280;33524;55.434;38.520;2023-08-21T07:28:07;100322.88;;;24.31;50.26
47761;BME280;33524;55.434;38.520;2023-08-21T07:30:38;100334.28;;;23.85;56.02
47761;BME280;33524;55.434;38.520;2023-08-21T07:33:14;100324.16;;;25.55;46.82
47761;BME280;33524;55.434;38.520;2023-08-21T07:35:42;100317.19;;;23.58;64.38
47761;BME280;33524;55.434;38.520;2023-08-21T07:38:17;100311.84;;;27.13;53.61
47761;BME280;33524;55.434;38.520;2023-08-21T07:40:45;100310.44;;;28.22;50.47
47761;BME280;33524;55.434;38.520;2023-08-21T07:43:13;100317.00;;;28.56;49.45
47761;BME280;33524;55.434;38.520;2023-08-21T07:45:42;100317.19;;;26.70;43.18
47761;BME280;33524;55.434;38.520;2023-08-21T07:48:10;100315.66;;;24.45;51.49
47761;BME280;33524;55.434;38.520;2023-08-21T07:50:41;100323.19;;;26.97;50.42
47761;BME280;33524;55.434;38.520;2023-08-21T07:53:19;100315.28;;;28.31;51.38
47761;BME280;33524;55.434;38.520;2023-08-21T07:55:47;100317.94;;;30.49;42.23
47761;BME280;33524;55.434;38.520;2023-08-21T07:58:15;100318.37;;;29.12;39.25
47761;BME280;33524;55.434;38.520;2023-08-21T08:00:46;100306.38;;;30.25;46.92
47761;BME280;33524;55.434;38.520;2023-08-21T08:03:17;100309.91;;;32.10;43.41
47761;BME280;33524;55.434;38.520;2023-08-21T08:05:45;100310.06;;;31.54;40.94
47761;BME280;33524;55.434;38.520;2023-08-21T08:08:25;100297.22;;;30.76;47.76
47761;BME280;33524;55.434;38.520;2023-08-21T08:10:53;100307.12;;;29.80;38.07
47761;BME280;33524;55.434;38.520;2023-08-21T08:13:21;100293.66;;;29.09;51.30
47761;BME280;33524;55.434;38.520;2023-08-21T08:15:49;100287.25;;;31.55;45.45
47761;BME280;33524;55.434;38.520;2023-08-21T08:18:17;100274.84;;;32.41;43.01
47761;BME280;33524;55.434;38.520;2023-08-21T08:20:46;100286.97;;;30.16;35.60
47761;BME280;33524;55.434;38.520;2023-08-21T08:23:15;100294.34;;;30.66;34.20
47761;BME280;33524;55.434;38.520;2023-08-21T08:25:47;100297.97;;;26.60;47.79
47761;BME280;33524;55.434;38.520;2023-08-21T08:28:15;100284.69;;;28.85;39.84
47761;BME280;33524;55.434;38.520;2023-08-21T08:30:43;100289.72;;;25.71;39.37
47761;BME280;33524;55.434;38.520;2023-08-21T08:33:11;100275.28;;;28.33;36.16
47761;BME280;33524;55.434;38.520;2023-08-21T08:35:42;100270.00;;;31.93;43.53
47761;BME280;33524;55.434;38.520;2023-08-21T08:38:11;100285.97;;;30.85;40.04
47761;BME280;33524;55.434;38.520;2023-08-21T08:40:44;100295.19;;;24.44;40.63
47761;BME280;33524;55.434;38.520;2023-08-21T08:43:13;100291.16;;;26.57;58.35
47761;BME280;33524;55.434;38.520;2023-08-21T08:45:43;100271.63;;;28.16;40.81
47761;BME280;33524;55.434;38.520;2023-08-21T08:48:16;100277.00;;;31.23;40.11
47761;BME280;33524;55.434;38.520;2023-08-21T08:50:45;100279.62;;;30.62;39.51
47761;BME280;33524;55.434;38.520;2023-08-21T08:53:18;100286.78;;;27.68;52.32
47761;BME280;33524;55.434;38.520;2023-08-21T08:55:46;100282.66;;;27.04;37.21
47761;BME280;33524;55.434;38.520;2023-08-21T08:58:16;100300.16;;;22.02;46.00
47761;BME280;33524;55.434;38.520;2023-08-21T09:00:44;100291.75;;;24.70;46.28
47761;BME280;33524;55.434;38.520;2023-08-21T09:03:19;100301.22;;;22.65;44.83
47761;BME280;33524;55.434;38.520;2023-08-21T09:05:50;100280.97;;;28.02;55.58
47761;BME280;33524;55.434;38.520;2023-08-21T09:08:19;100281.37;;;25.92;44.43
47761;BME280;33524;55.434;38.520;2023-08-21T09:10:47;100284.28;;;24.66;40.53
47761;BME280;33524;55.434;38.520;2023-08-21T09:13:17;100284.25;;;25.39;62.02
47761;BME280;33524;55.434;38.520;2023-08-21T09:15:48;100283.63;;;28.62;51.82
47761;BME280;33524;55.434;38.520;2023-08-21T09:18:22;100288.84;;;25.77;53.28
47761;BME280;33524;55.434;38.520;2023-08-21T09:20:51;100291.22;;;26.12;43.17
47761;BME280;33524;55.434;38.520;2023-08-21T09:23:19;100295.59;;;22.82;52.39
47761;BME280;33524;55.434;38.520;2023-08-21T09:25:48;100280.91;;;24.24;46.81
47761;BME280;33524;55.434;38.520;2023-08-21T09:28:22;100264.37;;;28.28;47.54
47761;BME280;33524;55.434;38.520;2023-08-21T09:30:53;100277.72;;;27.01;47.32
47761;BME280;33524;55.434;38.520;2023-08-21T09:33:23;100277.13;;;23.98;41.13
47761;BME280;33524;55.434;38.520;2023-08-21T09:35:54;100283.88;;;22.61;44.18
47761;BME280;33524;55.434;38.520;2023-08-21T09:38:31;100281.03;;;23.19;60.40
47761;BME280;33524;55.434;38.520;2023-08-21T09:41:01;100278.22;;;26.34;56.23
47761;BME280;33524;55.434;38.520;2023-08-21T09:43:41;100253.34;;;32.12;40.63
47761;BME280;33524;55.434;38.520;2023-08-21T09:46:17;100273.34;;;28.10;50.88
47761;BME280;33524;55.434;38.520;2023-08-21T09:48:46;100272.44;;;29.93;46.12
47761;BME280;33524;55.434;38.520;2023-08-21T09:51:14;100270.97;;;29.22;38.07
47761;BME280;33524;55.434;38.520;2023-08-21T09:53:43;100279.81;;;23.98;41.99
47761;BME280;33524;55.434;38.520;2023-08-21T09:56:12;100278.25;;;26.27;46.53
47761;BME280;33524;55.434;38.520;2023-08-21T09:58:40;100272.72;;;27.60;51.93
47761;BME280;33524;55.434;38.520;2023-08-21T10:01:09;100266.69;;;28.25;40.42
47761;BME280;33524;55.434;38.520;2023-08-21T10:03:43;100262.50;;;29.70;39.42
47761;BME280;33524;55.434;38.520;2023-08-21T10:06:17;100261.53;;;28.65;49.77
47761;BME280;33524;55.434;38.520;2023-08-21T10:08:53;100254.16;;;32.40;39.04
47761;BME280;33524;55.434;38.520;2023-08-21T10:11:23;100240.34;;;34.30;37.45
47761;BME280;33524;55.434;38.520;2023-08-21T10:13:52;100240.19;;;35.28;35.37
47761;BME280;33524;55.434;38.520;2023-08-21T10:16:21;100243.87;;;35.57;35.31
47761;BME280;33524;55.434;38.520;2023-08-21T10:18:50;100248.16;;;33.81;36.13
47761;BME280;33524;55.434;38.520;2023-08-21T10:21:22;100249.75;;;32.33;37.92
47761;BME280;33524;55.434;38.520;2023-08-21T10:24:00;100250.56;;;30.80;41.44
47761;BME280;33524;55.434;38.520;2023-08-21T10:26:28;100232.16;;;34.71;36.95
47761;BME280;33524;55.434;38.520;2023-08-21T10:29:02;100234.88;;;34.15;34.19
47761;BME280;33524;55.434;38.520;2023-08-21T10:31:41;100241.78;;;32.54;40.49
47761;BME280;33524;55.434;38.520;2023-08-21T10:34:12;100242.41;;;31.13;40.70
47761;BME280;33524;55.434;38.520;2023-08-21T10:39:18;100240.87;;;30.67;35.69
47761;BME280;33524;55.434;38.520;2023-08-21T10:42:09;100239.34;;;27.91;48.74
47761;BME280;33524;55.434;38.520;2023-08-21T10:44:50;100235.44;;;27.68;50.59
47761;BME280;33524;55.434;38.520;2023-08-21T10:47:32;100218.22;;;32.05;42.67
47761;BME280;33524;55.434;38.520;2023-08-21T10:50:03;100221.03;;;32.53;40.59
47761;BME280;33524;55.434;38.520;2023-08-21T10:52:41;100217.63;;;34.86;35.66
47761;BME280;33524;55.434;38.520;2023-08-21T10:55:13;100217.53;;;35.27;35.85
47761;BME280;33524;55.434;38.520;2023-08-21T10:57:42;100221.16;;;28.64;36.10
47761;BME280;33524;55.434;38.520;2023-08-21T11:00:13;100226.19;;;30.46;41.55
47761;BME280;33524;55.434;38.520;2023-08-21T11:02:48;100232.41;;;26.34;37.88
47761;BME280;33524;55.434;38.520;2023-08-21T11:05:20;100229.47;;;24.80;38.80
47761;BME280;33524;55.434;38.520;2023-08-21T11:07:49;100215.12;;;29.73;46.80
47761;BME280;33524;55.434;38.520;2023-08-21T11:10:23;100221.19;;;30.09;42.44
47761;BME280;33524;55.434;38.520;2023-08-21T11:12:56;100225.03;;;29.03;49.44
47761;BME280;33524;55.434;38.520;2023-08-21T11:15:26;100226.84;;;29.50;47.57
47761;BME280;33524;55.434;38.520;2023-08-21T11:18:01;100222.28;;;28.32;32.07
47761;BME280;33524;55.434;38.520;2023-08-21T11:20:33;100221.56;;;30.29;44.96
47761;BME280;33524;55.434;38.520;2023-08-21T11:23:05;100229.31;;;27.43;43.51
47761;BME280;33524;55.434;38.520;2023-08-21T11:25:40;100216.72;;;33.57;39.54
47761;BME280;33524;55.434;38.520;2023-08-21T11:28:17;100216.19;;;29.08;36.30
47761;BME280;33524;55.434;38.520;2023-08-21T11:30:47;100192.91;;;31.77;36.41
47761;BME280;33524;55.434;38.520;2023-08-21T11:33:16;100201.78;;;31.68;40.44
47761;BME280;33524;55.434;38.520;2023-08-21T11:35:48;100216.06;;;28.44;36.17
47761;BME280;33524;55.434;38.520;2023-08-21T11:38:19;100210.13;;;30.78;34.03
47761;BME280;33524;55.434;38.520;2023-08-21T11:41:02;100213.31;;;30.92;34.69
47761;BME280;33524;55.434;38.520;2023-08-21T11:43:38;100211.84;;;29.71;35.87
47761;BME280;33524;55.434;38.520;2023-08-21T11:46:09;100203.94;;;28.34;36.71
47761;BME280;33524;55.434;38.520;2023-08-21T11:48:42;100205.94;;;27.67;50.63
47761;BME280;33524;55.434;38.520;2023-08-21T11:51:10;100212.56;;;26.97;40.63
47761;BME280;33524;55.434;38.520;2023-08-21T11:53:42;100222.25;;;24.54;44.29
47761;BME280;33524;55.434;38.520;2023-08-21T11:56:15;100216.84;;;24.87;50.48
47761;BME280;33524;55.434;38.520;2023-08-21T11:58:46;100218.72;;;24.87;45.77
47761;BME280;33524;55.434;38.520;2023-08-21T12:01:19;100195.03;;;25.29;43.84
47761;BME280;33524;55.434;38.520;2023-08-21T12:03:49;100201.78;;;25.51;45.00
47761;BME280;33524;55.434;38.520;2023-08-21T12:06:24;100198.19;;;24.92;40.08
47761;BME280;33524;55.434;38.520;2023-08-21T12:08:54;100186.09;;;25.35;40.19
47761;BME280;33524;55.434;38.520;2023-08-21T12:11:31;100194.56;;;25.45;37.00
47761;BME280;33524;55.434;38.520;2023-08-21T12:14:07;100190.78;;;25.53;38.66
47761;BME280;33524;55.434;38.520;2023-08-21T12:16:37;100196.19;;;26.23;38.29
47761;BME280;33524;55.434;38.520;2023-08-21T12:19:06;100190.66;;;26.87;39.19
47761;BME280;33524;55.434;38.520;2023-08-21T12:21:37;100185.16;;;27.37;37.34
47761;BME280;33524;55.434;38.520;2023-08-21T12:24:06;100181.84;;;27.35;38.55
47761;BME280;33524;55.434;38.520;2023-08-21T12:26:34;100195.88;;;26.38;40.10
47761;BME280;33524;55.434;38.520;2023-08-21T12:29:17;100185.25;;;27.61;38.37
47761;BME280;33524;55.434;38.520;2023-08-21T12:31:45;100179.13;;;27.53;34.58
47761;BME280;33524;55.434;38.520;2023-08-21T12:34:14;100184.09;;;27.38;35.28
47761;BME280;33524;55.434;38.520;2023-08-21T12:36:43;100185.41;;;28.50;35.04
47761;BME280;33524;55.434;38.520;2023-08-21T12:39:12;100169.06;;;29.32;33.78
47761;BME280;33524;55.434;38.520;2023-08-21T12:41:45;100167.75;;;29.64;32.77
47761;BME280;33524;55.434;38.520;2023-08-21T12:44:13;100171.00;;;30.06;32.62
47761;BME280;33524;55.434;38.520;2023-08-21T12:46:41;100167.22;;;30.58;31.42
47761;BME280;33524;55.434;38.520;2023-08-21T12:49:13;100160.19;;;31.23;31.53
47761;BME280;33524;55.434;38.520;2023-08-21T12:51:41;100161.91;;;31.29;30.02
47761;BME280;33524;55.434;38.520;2023-08-21T12:54:09;100156.66;;;31.23;29.34
47761;BME280;33524;55.434;38.520;2023-08-21T12:56:38;100151.69;;;31.36;28.11
47761;BME280;33524;55.434;38.520;2023-08-21T12:59:07;100143.81;;;31.62;28.39
47761;BME280;33524;55.434;38.520;2023-08-21T13:01:35;100135.31;;;32.13;26.81